»·PEaware :: N285 KEUG-KPDX

N285 :: KEUG-KPDX

FLIGHT INFORMATION

Flight Status: Arrived
Operator: Privately registered:
United States
More flights under this callsign
Pilot: Leo F. (613)
Aircraft: BEECH AIRCRAFT SUPER KING AIR COMMUTER
(BE20)
More flights by this aircraft type
Origin: KEUG Mahlon Sweet
United States
Destination: KPDX Portland Intl
United States
More flights between these airports :: More routes between these airports
Route: EUG1 CVO V495 UBG
File this flight plan on PilotEdge
Remarks:
Altitude:
(Current/Filed)
10,000ft
Speed:
(Current/Filed)
270kts
Departed: 03-Oct-18 10:55 AM
Arrived: 03-Oct-18 11:38 AM
Distance/Time
Traveled:
92nm/0:43
Distance/Time
To Go:
Arrived

Flight Plot

Page will automatically refresh every two minutes.

Flight plan parsing failed; only flown route is shown


Map Options




Map Legend


Flown Route
Filed Route
Departure Airport
Arrival Airport
Navaid (VOR, NDB)
Fix

Horizontal Profiles

Position Reports

Time Latitude Longitude Heading Altitude Ground
Speed
03-Oct-18 10:30 44.113918 -123.214427 180 373ft 0kts
03-Oct-18 10:31 44.113917 -123.214427 180 373ft 0kts
03-Oct-18 10:32 44.113916 -123.214427 180 373ft 0kts
03-Oct-18 10:33 44.113915 -123.214427 180 373ft 0kts
03-Oct-18 10:34 44.113914 -123.214427 180 373ft 0kts
03-Oct-18 10:35 44.113913 -123.214427 180 373ft 0kts
03-Oct-18 10:36 44.113912 -123.214427 180 373ft 0kts
03-Oct-18 10:37 44.113911 -123.214427 180 373ft 0kts
03-Oct-18 10:38 44.113910 -123.214427 180 373ft 0kts
03-Oct-18 10:39 44.113909 -123.214427 180 373ft 0kts
03-Oct-18 10:40 44.113908 -123.214427 180 373ft 0kts
03-Oct-18 10:41 44.113907 -123.214427 180 373ft 0kts
03-Oct-18 10:42 44.113906 -123.214427 180 373ft 0kts
03-Oct-18 10:43 44.113905 -123.214427 180 373ft 0kts
03-Oct-18 10:44 44.113904 -123.214427 180 373ft 0kts
03-Oct-18 10:45 44.113903 -123.214427 180 373ft 0kts
03-Oct-18 10:46 44.113881 -123.214283 29 373ft 0kts
03-Oct-18 10:47 44.114920 -123.215363 320 373ft 0kts
03-Oct-18 10:48 44.115671 -123.217008 348 373ft 10kts
03-Oct-18 10:49 44.122594 -123.217150 355 373ft 24kts
03-Oct-18 10:50 44.131783 -123.217252 359 373ft 23kts
03-Oct-18 10:51 44.135152 -123.217791 260 373ft 0kts
03-Oct-18 10:52 44.135152 -123.217792 260 373ft 0kts
03-Oct-18 10:53 44.135152 -123.217793 260 373ft 0kts
03-Oct-18 10:54 44.135151 -123.217795 260 373ft 0kts
03-Oct-18 10:55 44.135151 -123.217796 260 373ft 0kts
03-Oct-18 10:56 44.134627 -123.219135 179 373ft 0kts
03-Oct-18 10:57 44.120794 -123.218846 176 539ft 137kts
03-Oct-18 10:58 44.074745 -123.217344 185 2451ft 186kts
03-Oct-18 10:59 44.022509 -123.218868 178 4268ft 182kts
03-Oct-18 11:00 43.972806 -123.217122 178 6014ft 177kts
03-Oct-18 11:01 43.944113 -123.255903 291 7410ft 186kts
03-Oct-18 11:02 43.992499 -123.279096 354 8832ft 197kts
03-Oct-18 11:03 44.048276 -123.283065 354 9961ft 213kts
03-Oct-18 11:04 44.114834 -123.284329 359 10004ft 263kts
03-Oct-18 11:05 44.190510 -123.284533 357 10001ft 276kts
03-Oct-18 11:06 44.267768 -123.286730 356 9992ft 279kts
03-Oct-18 11:07 44.345823 -123.288898 356 9997ft 279kts
03-Oct-18 11:08 44.423646 -123.291314 356 10006ft 279kts
03-Oct-18 11:09 44.501277 -123.291166 5 10010ft 280kts
03-Oct-18 11:10 44.577512 -123.266537 13 10013ft 282kts
03-Oct-18 11:11 44.654068 -123.237689 13 10001ft 285kts
03-Oct-18 11:12 44.730228 -123.209531 13 10004ft 282kts
03-Oct-18 11:13 44.793613 -123.186378 13 10002ft 281kts
03-Oct-18 11:14 44.881801 -123.153847 13 10001ft 281kts
03-Oct-18 11:15 44.944827 -123.130530 13 9998ft 281kts
03-Oct-18 11:16 45.033259 -123.098427 13 9985ft 281kts
03-Oct-18 11:17 45.096344 -123.075668 13 9981ft 281kts
03-Oct-18 11:18 45.184726 -123.042331 14 9980ft 281kts
03-Oct-18 11:19 45.247572 -123.018032 14 9981ft 281kts
03-Oct-18 11:20 45.323014 -122.989078 14 9984ft 277kts
03-Oct-18 11:21 45.383513 -122.935688 52 9985ft 247kts
03-Oct-18 11:22 45.422126 -122.863425 50 9985ft 217kts
03-Oct-18 11:23 45.462232 -122.797722 48 9182ft 236kts
03-Oct-18 11:24 45.510313 -122.728860 45 7689ft 249kts
03-Oct-18 11:25 45.557122 -122.660396 49 6990ft 223kts
03-Oct-18 11:26 45.587515 -122.591845 81 6991ft 196kts
03-Oct-18 11:27 45.594093 -122.515874 85 6987ft 190kts
03-Oct-18 11:28 45.600051 -122.441451 85 6983ft 187kts
03-Oct-18 11:29 45.600371 -122.368084 110 6764ft 197kts
03-Oct-18 11:30 45.575397 -122.288802 115 5188ft 232kts
03-Oct-18 11:31 45.544742 -122.217109 153 5044ft 187kts
03-Oct-18 11:32 45.501710 -122.235999 205 4310ft 172kts
03-Oct-18 11:33 45.483890 -122.286806 274 3977ft 149kts
03-Oct-18 11:34 45.495676 -122.343723 297 3596ft 156kts
03-Oct-18 11:35 45.517785 -122.398657 300 2889ft 162kts
03-Oct-18 11:36 45.539911 -122.454853 299 1807ft 158kts
03-Oct-18 11:37 45.560413 -122.507144 299 997ft 143kts
03-Oct-18 11:38 45.576144 -122.548104 297 429ft 106kts
03-Oct-18 11:39 45.587765 -122.577793 302 34ft 43kts
03-Oct-18 11:40 45.589432 -122.583401 222 34ft 5kts
03-Oct-18 11:41 45.589372 -122.583475 219 34ft 0kts
03-Oct-18 11:42 45.589271 -122.583562 190 34ft 8kts
03-Oct-18 11:43 45.588654 -122.582517 120 34ft 6kts
03-Oct-18 11:44 45.586210 -122.577989 194 34ft 5kts
03-Oct-18 11:45 45.584509 -122.577759 61 34ft 0kts
03-Oct-18 11:46 45.584509 -122.577759 61 34ft 0kts
03-Oct-18 11:47 45.584509 -122.577759 61 34ft 0kts
03-Oct-18 11:48 45.584510 -122.577757 61 34ft 0kts
03-Oct-18 11:49 45.584511 -122.577756 61 34ft 0kts
03-Oct-18 11:50 45.584511 -122.577754 61 34ft 0kts
03-Oct-18 11:51 45.584512 -122.577753 61 34ft 0kts
03-Oct-18 11:52 45.584512 -122.577752 61 34ft 0kts

Navigation Log

Ident Type
Flight plan parsing failed, navigation log unavailable